Time;durP1;ratioP1;P1;durP2;ratioP2;P2;SDS_P1;SDS_P2;PMS_P1;PMS_P2;Temp;Humidity;BMP_temperature;BMP_pressure;BME280_temperature;BME280_humidity;BME280_pressure;Samples;Min_cycle;Max_cycle;Signal;HPM_P1;HPM_P2
2023/10/01 00:00:46;;;;;;;0.60;0.60;;;7.20;99.90;;;;;;5027767;28;20202;-76
2023/10/01 00:03:16;;;;;;;0.57;0.57;;;7.20;99.90;;;;;;5027646;28;20321;-76
2023/10/01 00:05:41;;;;;;;8.60;1.85;;;7.10;99.90;;;;;;5080627;27;20214;-75
2023/10/01 00:08:08;;;;;;;0.70;0.70;;;7.10;99.90;;;;;;5113060;27;20201;-76
2023/10/01 00:10:34;;;;;;;1.23;1.17;;;7.10;99.90;;;;;;5131358;27;20190;-75
2023/10/01 00:13:00;;;;;;;0.70;0.70;;;7.10;99.90;;;;;;5127544;27;20183;-75
2023/10/01 00:15:27;;;;;;;0.57;0.57;;;7.10;99.90;;;;;;5092361;28;20195;-75
2023/10/01 00:17:53;;;;;;;0.60;0.60;;;7.10;99.90;;;;;;5092351;28;20794;-75
2023/10/01 00:27:17;;;;;;;0.68;0.68;;;7.10;99.90;;;;;;5112728;28;20788;-76
2023/10/01 00:29:43;;;;;;;0.60;0.60;;;7.00;99.90;;;;;;5112079;28;20200;-76
2023/10/01 00:32:14;;;;;;;0.60;0.60;;;7.00;99.90;;;;;;5111478;28;20218;-76
2023/10/01 00:34:40;;;;;;;0.80;0.80;;;7.00;99.90;;;;;;5110513;28;20286;-74
2023/10/01 00:37:41;;;;;;;0.50;0.50;;;7.10;99.90;;;;;;5092683;28;20345;-76
2023/10/01 00:40:10;;;;;;;0.70;0.70;;;7.10;99.90;;;;;;5043300;28;20209;-76
2023/10/01 00:42:37;;;;;;;0.52;0.52;;;7.20;99.90;;;;;;5046748;28;20214;-76
2023/10/01 00:45:07;;;;;;;0.55;0.55;;;7.20;99.90;;;;;;5047271;28;20216;-76
2023/10/01 00:47:35;;;;;;;0.60;0.60;;;7.20;99.90;;;;;;5047075;28;20217;-76
2023/10/01 00:50:01;;;;;;;0.80;0.80;;;7.10;99.90;;;;;;5041125;28;20690;-76
2023/10/01 00:52:28;;;;;;;0.70;0.70;;;7.20;99.90;;;;;;5016261;28;20223;-75
2023/10/01 00:54:55;;;;;;;0.60;0.60;;;7.20;99.90;;;;;;5007580;28;20281;-76
2023/10/01 00:57:21;;;;;;;0.70;0.70;;;7.20;99.90;;;;;;5007648;28;20698;-76
2023/10/01 00:59:48;;;;;;;0.60;0.60;;;7.30;99.90;;;;;;4990828;28;20234;-75
2023/10/01 01:02:17;;;;;;;0.57;0.57;;;7.20;99.90;;;;;;5007127;28;20727;-77
2023/10/01 01:04:47;;;;;;;0.60;0.60;;;7.20;99.90;;;;;;5007331;28;20282;-76
2023/10/01 01:07:19;;;;;;;0.50;0.50;;;7.20;99.90;;;;;;5007144;28;20221;-76
2023/10/01 01:09:46;;;;;;;0.60;0.60;;;7.20;99.90;;;;;;4990143;28;20284;-75
2023/10/01 01:12:13;;;;;;;0.60;0.60;;;7.20;99.90;;;;;;5007107;28;20629;-76
2023/10/01 01:14:41;;;;;;;0.50;0.50;;;7.10;99.90;;;;;;5048582;28;20200;-77
2023/10/01 01:17:06;;;;;;;0.50;0.50;;;7.10;99.90;;;;;;5090633;28;20260;-76
2023/10/01 01:19:35;;;;;;;0.57;0.57;;;7.10;99.90;;;;;;5089005;28;20287;-73
2023/10/01 01:22:01;;;;;;;0.70;0.70;;;7.00;99.90;;;;;;5088962;28;20196;-73
2023/10/01 01:24:29;;;;;;;0.68;0.68;;;7.10;99.90;;;;;;5088365;28;20630;-73
2023/10/01 01:27:00;;;;;;;0.60;0.60;;;7.10;99.90;;;;;;5089035;28;20215;-73
2023/10/01 01:29:33;;;;;;;0.60;0.60;;;7.00;99.90;;;;;;5089135;28;20681;-73
2023/10/01 01:32:07;;;;;;;0.52;0.52;;;7.00;99.90;;;;;;5087486;28;20188;-73
2023/10/01 01:34:36;;;;;;;0.60;0.60;;;7.00;99.90;;;;;;5088946;28;20200;-73
2023/10/01 01:37:05;;;;;;;0.60;0.60;;;7.00;99.90;;;;;;5087430;28;20196;-73
2023/10/01 01:39:48;;;;;;;0.57;0.57;;;7.00;99.90;;;;;;5099983;28;20200;-73
2023/10/01 01:42:21;;;;;;;0.60;0.60;;;7.00;99.90;;;;;;5109250;28;20211;-73
2023/10/01 01:45:15;;;;;;;0.68;0.68;;;7.00;99.90;;;;;;5109784;28;20213;-73
2023/10/01 01:47:39;;;;;;;0.57;0.57;;;7.00;99.90;;;;;;5108157;28;20226;-73
2023/10/01 01:53:03;;;;;;;0.52;0.52;;;7.00;99.90;;;;;;5095664;28;20235;-71
2023/10/01 01:55:34;;;;;;;0.70;0.70;;;7.00;99.90;;;;;;5108867;28;20187;-73
2023/10/01 01:58:10;;;;;;;0.50;0.50;;;7.00;99.90;;;;;;5109201;28;20194;-72
2023/10/01 02:01:01;;;;;;;0.70;0.70;;;7.00;99.90;;;;;;5113222;28;20674;-72
2023/10/01 02:03:27;;;;;;;0.50;0.50;;;7.00;99.90;;;;;;5115714;28;20609;-72
2023/10/01 02:05:52;;;;;;;0.60;0.60;;;6.90;99.90;;;;;;5115471;28;20650;-71
2023/10/01 02:08:25;;;;;;;0.50;0.50;;;6.80;99.90;;;;;;5115858;28;20252;-72
2023/10/01 02:10:51;;;;;;;0.47;0.47;;;6.80;99.90;;;;;;5115830;28;20234;-72
2023/10/01 02:13:17;;;;;;;0.50;0.50;;;6.90;99.90;;;;;;5116075;28;20195;-72
2023/10/01 02:15:45;;;;;;;0.60;0.60;;;6.80;99.90;;;;;;5116209;28;20221;-71
2023/10/01 02:18:15;;;;;;;0.50;0.50;;;6.80;99.90;;;;;;5115674;28;20196;-71
2023/10/01 02:20:43;;;;;;;0.60;0.60;;;6.80;99.90;;;;;;5115633;28;20618;-71
2023/10/01 02:23:12;;;;;;;0.60;0.60;;;6.80;99.90;;;;;;5115821;28;20233;-72
2023/10/01 02:25:45;;;;;;;0.50;0.50;;;6.80;99.90;;;;;;5115599;28;20280;-72
2023/10/01 02:28:15;;;;;;;0.60;0.60;;;6.70;99.90;;;;;;5115531;28;20222;-71
2023/10/01 02:30:42;;;;;;;0.68;0.68;;;6.70;99.90;;;;;;5096879;28;20234;-71
2023/10/01 02:33:18;;;;;;;0.60;0.60;;;6.70;99.90;;;;;;5115214;28;20199;-72
2023/10/01 02:35:49;;;;;;;0.60;0.60;;;6.60;99.90;;;;;;5114025;28;20218;-73
2023/10/01 02:41:02;;;;;;;0.68;0.68;;;6.50;99.90;;;;;;5118999;27;20206;-72
2023/10/01 02:43:34;;;;;;;0.85;0.80;;;6.50;99.90;;;;;;5115199;28;20203;-71
2023/10/01 02:46:09;;;;;;;0.50;0.50;;;6.50;99.90;;;;;;5113981;28;20226;-71
2023/10/01 02:48:36;;;;;;;0.70;0.70;;;6.50;99.90;;;;;;5115250;28;20274;-71
2023/10/01 02:51:17;;;;;;;0.57;0.57;;;6.50;99.90;;;;;;5115458;28;20661;-71
2023/10/01 02:54:01;;;;;;;0.40;0.40;;;6.60;99.90;;;;;;5115066;28;20203;-72
2023/10/01 02:56:30;;;;;;;2.25;1.48;;;6.60;99.90;;;;;;5115472;28;20266;-72
2023/10/01 02:58:56;;;;;;;0.60;0.60;;;6.60;99.90;;;;;;5115452;28;20195;-71
2023/10/01 03:01:23;;;;;;;0.60;0.60;;;6.50;99.90;;;;;;5105313;28;20200;-71
2023/10/01 03:03:52;;;;;;;0.50;0.50;;;6.50;99.90;;;;;;5115066;28;20286;-74
2023/10/01 03:06:18;;;;;;;0.60;0.60;;;6.50;99.90;;;;;;5115317;28;20319;-74
2023/10/01 03:11:16;;;;;;;0.73;0.73;;;6.50;99.90;;;;;;5113913;28;20666;-74
2023/10/01 03:13:46;;;;;;;0.70;0.70;;;6.50;99.90;;;;;;5111897;28;20184;-74
2023/10/01 03:19:04;;;;;;;0.52;0.52;;;6.50;99.90;;;;;;5112199;28;20730;-77
2023/10/01 03:22:15;;;;;;;0.75;0.75;;;6.40;99.90;;;;;;5093159;28;20203;-74
2023/10/01 03:24:20;;;;;;;0.60;0.60;;;6.40;99.90;;;;;;5100383;28;20196;-74
2023/10/01 03:26:45;;;;;;;0.60;0.60;;;6.40;99.90;;;;;;5111719;28;20211;-74
2023/10/01 03:29:34;;;;;;;0.50;0.50;;;6.40;99.90;;;;;;5111769;28;20194;-74
2023/10/01 03:34:52;;;;;;;0.68;0.68;;;6.50;99.90;;;;;;5111809;28;20736;-74
2023/10/01 03:37:19;;;;;;;0.60;0.60;;;6.60;99.90;;;;;;5110633;28;20192;-74
2023/10/01 03:39:51;;;;;;;0.50;0.50;;;6.60;99.90;;;;;;5109034;28;20199;-74
2023/10/01 03:42:17;;;;;;;0.68;0.68;;;6.60;99.90;;;;;;5110244;28;20192;-77
2023/10/01 03:44:59;;;;;;;0.70;0.70;;;6.70;99.90;;;;;;5111689;28;20552;-74
2023/10/01 03:47:27;;;;;;;0.70;0.70;;;6.70;99.90;;;;;;5111414;28;20582;-76
2023/10/01 03:49:54;;;;;;;0.60;0.60;;;6.70;99.90;;;;;;5111279;28;20210;-75
2023/10/01 03:52:23;;;;;;;0.60;0.60;;;6.70;99.90;;;;;;5121068;27;20696;-75
2023/10/01 03:55:15;;;;;;;0.60;0.60;;;6.70;99.90;;;;;;5131755;27;20563;-75
2023/10/01 03:57:54;;;;;;;4.82;2.97;;;6.70;99.90;;;;;;5113003;27;20580;-76
2023/10/01 04:00:32;;;;;;;0.80;0.80;;;6.60;99.90;;;;;;5131987;27;20650;-75
2023/10/01 04:02:58;;;;;;;0.60;0.60;;;6.50;99.90;;;;;;5113292;27;20233;-75
2023/10/01 04:05:34;;;;;;;0.55;0.55;;;6.40;99.90;;;;;;5112701;27;20682;-75
2023/10/01 04:08:07;;;;;;;0.60;0.60;;;6.40;99.90;;;;;;5111941;27;20194;-75
2023/10/01 04:10:35;;;;;;;0.70;0.70;;;6.50;99.90;;;;;;5112803;27;20194;-75
2023/10/01 04:13:23;;;;;;;0.60;0.60;;;6.50;99.90;;;;;;5131366;27;20612;-74
2023/10/01 04:15:49;;;;;;;0.85;0.85;;;6.60;99.90;;;;;;5130796;27;20670;-75
2023/10/01 04:20:49;;;;;;;0.55;0.55;;;6.50;99.90;;;;;;5131316;27;20293;-75
2023/10/01 04:23:23;;;;;;;2.38;1.98;;;6.40;99.90;;;;;;5130994;27;20712;-75
2023/10/01 04:25:52;;;;;;;0.57;0.57;;;6.30;99.90;;;;;;5131170;27;20301;-75
2023/10/01 04:28:18;;;;;;;0.60;0.60;;;6.40;99.90;;;;;;5130933;27;20691;-75
2023/10/01 04:30:45;;;;;;;0.70;0.70;;;6.40;99.90;;;;;;5131159;27;20202;-74
2023/10/01 04:33:17;;;;;;;0.65;0.65;;;6.40;99.90;;;;;;5131243;27;20210;-75
2023/10/01 04:35:55;;;;;;;0.82;0.82;;;6.40;99.90;;;;;;5112117;27;20704;-75
2023/10/01 04:38:28;;;;;;;0.60;0.60;;;6.40;99.90;;;;;;5132352;27;20243;-74
2023/10/01 04:40:55;;;;;;;1.20;1.10;;;6.30;99.90;;;;;;5151808;27;20268;-74
2023/10/01 04:43:21;;;;;;;0.60;0.60;;;6.30;99.90;;;;;;5132660;27;20206;-74
2023/10/01 04:45:47;;;;;;;0.50;0.50;;;6.30;99.90;;;;;;5151453;27;20213;-74
2023/10/01 04:48:22;;;;;;;0.60;0.60;;;6.30;99.90;;;;;;5151829;27;20221;-74
2023/10/01 04:50:50;;;;;;;0.90;0.90;;;6.20;99.90;;;;;;5152114;27;20197;-74
2023/10/01 04:53:22;;;;;;;0.60;0.60;;;6.20;99.90;;;;;;5151391;27;20305;-75
2023/10/01 04:56:01;;;;;;;0.70;0.70;;;6.20;99.90;;;;;;5117297;27;20246;-74
2023/10/01 04:58:29;;;;;;;0.70;0.70;;;6.20;99.90;;;;;;5109852;28;20222;-74
2023/10/01 05:00:55;;;;;;;0.70;0.70;;;6.10;99.90;;;;;;5109972;28;20214;-75
2023/10/01 05:03:38;;;;;;;0.60;0.60;;;6.20;99.90;;;;;;5091376;28;20694;-74
2023/10/01 05:06:22;;;;;;;0.82;0.82;;;6.10;99.90;;;;;;5109848;28;20708;-74
2023/10/01 05:08:51;;;;;;;0.70;0.70;;;6.20;99.90;;;;;;5109985;28;20210;-74
2023/10/01 05:11:21;;;;;;;0.60;0.60;;;6.20;99.90;;;;;;5109794;28;20192;-75
2023/10/01 05:13:48;;;;;;;0.70;0.70;;;6.10;99.90;;;;;;5109889;28;20199;-74
2023/10/01 05:16:18;;;;;;;0.68;0.68;;;6.10;99.90;;;;;;5109927;28;20210;-74
2023/10/01 05:18:45;;;;;;;0.65;0.65;;;6.10;99.90;;;;;;5105651;27;20205;-74
2023/10/01 05:21:12;;;;;;;0.60;0.60;;;6.00;99.90;;;;;;5130233;27;20245;-74
2023/10/01 05:23:39;;;;;;;1.13;1.13;;;5.90;99.90;;;;;;5111804;27;20195;-74
2023/10/01 05:26:08;;;;;;;0.50;0.50;;;5.90;99.90;;;;;;5112002;27;20206;-74
2023/10/01 05:28:36;;;;;;;0.60;0.60;;;5.90;99.90;;;;;;5130248;27;20274;-74
2023/10/01 05:31:06;;;;;;;1.88;1.27;;;5.90;99.90;;;;;;5129746;27;20191;-74
2023/10/01 05:33:35;;;;;;;0.60;0.60;;;5.90;99.90;;;;;;5130004;27;20190;-74
2023/10/01 05:36:05;;;;;;;0.60;0.60;;;5.90;99.90;;;;;;5129435;27;20195;-74
2023/10/01 05:38:37;;;;;;;0.50;0.50;;;5.90;99.90;;;;;;5114361;27;20218;-74
2023/10/01 05:41:13;;;;;;;0.50;0.50;;;5.90;99.90;;;;;;5151136;27;20690;-74
2023/10/01 05:43:43;;;;;;;0.93;0.93;;;5.90;99.90;;;;;;5150784;27;20189;-75
2023/10/01 05:46:10;;;;;;;1.13;1.05;;;5.90;99.90;;;;;;5150371;27;20206;-74
2023/10/01 05:48:39;;;;;;;0.55;0.55;;;5.90;99.90;;;;;;5150590;27;20182;-74
2023/10/01 05:51:12;;;;;;;0.80;0.80;;;5.90;99.90;;;;;;5128172;27;20188;-74
2023/10/01 05:53:40;;;;;;;0.60;0.60;;;5.90;99.90;;;;;;5109348;28;20310;-74
2023/10/01 05:56:10;;;;;;;0.60;0.60;;;5.90;99.90;;;;;;5091423;28;20214;-74
2023/10/01 05:58:38;;;;;;;0.60;0.60;;;6.00;99.90;;;;;;5109213;28;20264;-74
2023/10/01 06:01:13;;;;;;;0.60;0.60;;;6.00;99.90;;;;;;5109426;28;20198;-74
2023/10/01 06:03:43;;;;;;;0.60;0.60;;;6.10;99.90;;;;;;5109250;28;20187;-73
2023/10/01 06:06:25;;;;;;;1.55;1.45;;;6.10;99.90;;;;;;5109231;28;20222;-74
2023/10/01 06:08:58;;;;;;;0.88;0.88;;;6.20;99.90;;;;;;5090975;28;20298;-74
2023/10/01 06:12:17;;;;;;;0.52;0.52;;;6.40;99.90;;;;;;5109269;28;20685;-75
2023/10/01 06:19:42;;;;;;;0.82;0.82;;;6.50;99.90;;;;;;5129403;28;20680;-75
2023/10/01 06:22:14;;;;;;;0.60;0.60;;;6.50;99.90;;;;;;5129955;28;20191;-75
2023/10/01 06:24:42;;;;;;;0.57;0.57;;;6.60;99.90;;;;;;5129245;28;20226;-75
2023/10/01 06:27:12;;;;;;;0.80;0.80;;;6.70;99.90;;;;;;5129233;28;20217;-75
2023/10/01 06:29:49;;;;;;;0.60;0.60;;;6.80;99.90;;;;;;5129744;28;20718;-72
2023/10/01 06:32:16;;;;;;;0.50;0.50;;;6.80;99.90;;;;;;5129060;28;20194;-72
2023/10/01 06:34:45;;;;;;;0.52;0.52;;;6.90;99.90;;;;;;5129460;28;20680;-72
2023/10/01 06:37:12;;;;;;;5.20;2.67;;;7.00;99.90;;;;;;5129316;28;20542;-73
2023/10/01 06:39:41;;;;;;;0.60;0.60;;;7.10;99.90;;;;;;5141724;27;20238;-73
2023/10/01 06:42:20;;;;;;;0.60;0.60;;;7.20;99.90;;;;;;5131332;27;20289;-72
2023/10/01 06:44:50;;;;;;;0.73;0.73;;;7.30;99.90;;;;;;5149579;27;20229;-73
2023/10/01 06:47:17;;;;;;;0.57;0.57;;;7.50;99.90;;;;;;5134667;27;20219;-72
2023/10/01 06:49:57;;;;;;;0.60;0.60;;;7.50;99.90;;;;;;5094085;28;20203;-72
2023/10/01 06:52:32;;;;;;;0.60;0.60;;;7.60;99.90;;;;;;5112186;28;20230;-73
2023/10/01 06:54:59;;;;;;;0.70;0.70;;;7.80;99.90;;;;;;5112221;28;20262;-73
2023/10/01 06:57:27;;;;;;;0.70;0.70;;;7.90;99.90;;;;;;5112255;28;20719;-73
2023/10/01 06:59:56;;;;;;;1.15;1.05;;;8.00;99.90;;;;;;5112209;28;20195;-72
2023/10/01 07:02:23;;;;;;;0.80;0.80;;;8.20;99.90;;;;;;5111876;28;20256;-73
2023/10/01 07:04:56;;;;;;;0.60;0.60;;;8.30;99.90;;;;;;5112319;28;20647;-74
2023/10/01 07:07:22;;;;;;;0.50;0.50;;;8.50;99.90;;;;;;5130041;27;20202;-72
2023/10/01 07:09:49;;;;;;;0.50;0.50;;;8.60;99.90;;;;;;5132629;27;20642;-73
2023/10/01 07:12:17;;;;;;;0.60;0.60;;;8.80;99.90;;;;;;5132570;27;20190;-73
2023/10/01 07:14:43;;;;;;;5.70;2.67;;;8.90;99.90;;;;;;5132419;27;20629;-74
2023/10/01 07:17:15;;;;;;;0.70;0.70;;;9.10;99.90;;;;;;5132698;27;20238;-76
2023/10/01 07:19:42;;;;;;;0.70;0.70;;;9.20;99.90;;;;;;5131412;27;20651;-75
2023/10/01 07:22:14;;;;;;;0.73;0.73;;;9.40;99.90;;;;;;5132633;27;20661;-74
2023/10/01 07:24:43;;;;;;;0.60;0.60;;;9.50;99.90;;;;;;5131979;27;20195;-75
2023/10/01 07:27:12;;;;;;;0.60;0.60;;;9.70;99.90;;;;;;5132422;27;20202;-74
2023/10/01 07:29:42;;;;;;;0.93;0.93;;;9.80;99.90;;;;;;5132210;27;20247;-74
2023/10/01 07:32:08;;;;;;;0.60;0.60;;;10.00;99.90;;;;;;5132120;27;20186;-75
2023/10/01 07:34:48;;;;;;;0.60;0.60;;;10.10;99.90;;;;;;5132395;27;20195;-75
2023/10/01 07:37:23;;;;;;;0.60;0.60;;;10.20;99.90;;;;;;5113789;27;20203;-75
2023/10/01 07:39:55;;;;;;;0.60;0.60;;;10.40;99.90;;;;;;5124137;27;20271;-75
2023/10/01 07:42:22;;;;;;;0.60;0.60;;;10.60;99.90;;;;;;5132055;27;20576;-75
2023/10/01 07:44:49;;;;;;;0.60;0.60;;;10.70;99.90;;;;;;5131934;27;20210;-75
2023/10/01 07:47:28;;;;;;;1.45;1.35;;;10.80;99.90;;;;;;5132043;27;20206;-75
2023/10/01 07:49:57;;;;;;;0.57;0.57;;;10.90;99.90;;;;;;5132142;27;20194;-75
2023/10/01 07:52:24;;;;;;;0.65;0.65;;;11.10;99.90;;;;;;5109777;28;20230;-75
2023/10/01 07:54:50;;;;;;;1.00;1.00;;;11.20;99.90;;;;;;5111251;28;20240;-75
2023/10/01 07:57:27;;;;;;;0.60;0.60;;;11.30;99.90;;;;;;5110947;28;20249;-75
2023/10/01 08:00:09;;;;;;;0.55;0.55;;;11.40;99.90;;;;;;5111550;28;20191;-75
2023/10/01 08:03:27;;;;;;;0.60;0.60;;;11.50;99.90;;;;;;5101166;28;20200;-75
2023/10/01 08:05:21;;;;;;;0.70;0.70;;;11.70;99.90;;;;;;5090396;28;20282;-75
2023/10/01 08:07:47;;;;;;;0.75;0.75;;;11.90;99.90;;;;;;5090806;28;20546;-76
2023/10/01 08:10:19;;;;;;;0.70;0.70;;;12.10;99.90;;;;;;5090424;28;20192;-76
2023/10/01 08:13:05;;;;;;;0.73;0.73;;;12.20;99.90;;;;;;5096095;28;20199;-77
2023/10/01 08:15:37;;;;;;;0.50;0.50;;;12.30;99.90;;;;;;5110742;28;20196;-75
2023/10/01 08:18:26;;;;;;;0.60;0.60;;;12.30;99.90;;;;;;5111004;28;20634;-75
2023/10/01 08:20:58;;;;;;;0.50;0.50;;;12.40;99.90;;;;;;5110552;28;20195;-79
2023/10/01 08:23:28;;;;;;;0.75;0.68;;;12.50;99.90;;;;;;5110527;28;20209;-75
2023/10/01 08:25:56;;;;;;;0.60;0.60;;;12.70;99.90;;;;;;5110598;28;20207;-77
2023/10/01 08:31:01;;;;;;;0.60;0.60;;;13.00;99.90;;;;;;5111184;28;20191;-72
2023/10/01 08:33:33;;;;;;;0.60;0.60;;;13.10;99.90;;;;;;5110318;28;20258;-71
2023/10/01 08:36:12;;;;;;;0.50;0.50;;;13.30;99.90;;;;;;5110742;28;20681;-73
2023/10/01 08:38:48;;;;;;;0.70;0.70;;;13.30;99.90;;;;;;5114043;27;20206;-72
2023/10/01 08:41:47;;;;;;;1.20;0.75;;;13.50;99.90;;;;;;5090063;28;20192;-72
2023/10/01 08:44:10;;;;;;;1.55;1.45;;;13.80;99.90;;;;;;5088804;28;20302;-73
2023/10/01 08:46:39;;;;;;;0.50;0.50;;;14.10;99.90;;;;;;5071547;28;20211;-73
2023/10/01 08:49:23;;;;;;;0.70;0.70;;;14.30;99.90;;;;;;5089741;28;20655;-73
2023/10/01 08:52:18;;;;;;;0.77;0.77;;;14.30;99.90;;;;;;5094877;28;20243;-74
2023/10/01 08:54:48;;;;;;;0.50;0.50;;;14.40;99.90;;;;;;5109608;28;20199;-74
2023/10/01 08:57:36;;;;;;;0.65;0.65;;;14.60;99.90;;;;;;5110176;28;20199;-74
2023/10/01 09:00:14;;;;;;;0.50;0.50;;;14.80;99.90;;;;;;5110026;28;20202;-75
2023/10/01 09:02:39;;;;;;;4.68;1.02;;;15.00;99.90;;;;;;5109709;28;20203;-75
2023/10/01 09:05:08;;;;;;;0.50;0.50;;;15.10;99.90;;;;;;5110039;28;20195;-74
2023/10/01 09:07:46;;;;;;;0.40;0.40;;;15.20;99.90;;;;;;5109686;28;20211;-75
2023/10/01 09:10:17;;;;;;;0.50;0.50;;;15.30;99.90;;;;;;5126025;27;20202;-74
2023/10/01 09:12:47;;;;;;;0.60;0.60;;;15.60;99.90;;;;;;5111458;27;20206;-74
2023/10/01 09:15:27;;;;;;;1.92;0.70;;;15.50;99.90;;;;;;5129821;27;20228;-76
2023/10/01 09:17:56;;;;;;;0.40;0.40;;;15.40;99.90;;;;;;5110762;27;20198;-73
2023/10/01 09:21:06;;;;;;;0.40;0.40;;;15.60;99.90;;;;;;5129781;27;20187;-73
2023/10/01 09:23:56;;;;;;;1.50;0.95;;;15.80;99.90;;;;;;5129618;27;20203;-74
2023/10/01 09:26:39;;;;;;;0.43;0.43;;;16.00;99.90;;;;;;5129836;27;20217;-73
2023/10/01 09:29:14;;;;;;;0.70;0.70;;;16.10;99.90;;;;;;5129935;27;20273;-72
2023/10/01 09:31:52;;;;;;;0.40;0.40;;;15.80;99.90;;;;;;5129640;27;20186;-72
2023/10/01 09:34:33;;;;;;;0.40;0.40;;;15.60;99.90;;;;;;5129769;27;20186;-73
2023/10/01 09:40:12;;;;;;;0.55;0.52;;;15.80;99.90;;;;;;5129593;27;20328;-72
2023/10/01 09:42:45;;;;;;;0.30;0.30;;;15.80;99.90;;;;;;5128259;27;20542;-71
2023/10/01 09:45:26;;;;;;;0.73;0.73;;;15.90;99.90;;;;;;5129920;27;20197;-71
2023/10/01 09:47:58;;;;;;;0.40;0.40;;;16.30;99.90;;;;;;5129907;27;20207;-71
2023/10/01 09:50:24;;;;;;;0.52;0.52;;;16.30;99.90;;;;;;5130229;27;20191;-73
2023/10/01 09:52:58;;;;;;;0.30;0.30;;;16.40;99.90;;;;;;5144033;27;20711;-73
2023/10/01 09:55:26;;;;;;;0.40;0.40;;;16.60;99.90;;;;;;5150439;27;20201;-72
2023/10/01 09:57:59;;;;;;;0.32;0.32;;;16.80;99.90;;;;;;5150664;27;20202;-71
2023/10/01 10:00:40;;;;;;;0.65;0.65;;;16.90;99.90;;;;;;5150561;27;20473;-75
2023/10/01 10:03:11;;;;;;;0.40;0.40;;;16.80;99.90;;;;;;5151024;27;20198;-76
2023/10/01 10:05:41;;;;;;;1.60;0.93;;;16.90;99.90;;;;;;5121066;28;20256;-76
2023/10/01 10:08:16;;;;;;;0.40;0.40;;;17.10;99.90;;;;;;5129734;28;20235;-75
2023/10/01 10:10:50;;;;;;;0.30;0.30;;;17.40;99.90;;;;;;5129536;28;20194;-76
2023/10/01 10:14:00;;;;;;;0.60;0.55;;;17.70;99.90;;;;;;5128887;28;20713;-76
2023/10/01 10:16:32;;;;;;;0.95;0.77;;;18.10;99.90;;;;;;5129011;28;20665;-77
2023/10/01 10:19:20;;;;;;;0.40;0.40;;;17.80;99.90;;;;;;5129837;28;20269;-76
2023/10/01 10:24:46;;;;;;;0.68;0.68;;;17.80;99.90;;;;;;5134516;27;20305;-78
2023/10/01 10:27:24;;;;;;;1.65;0.82;;;18.00;99.90;;;;;;5133396;27;20214;-77
2023/10/01 10:29:56;;;;;;;0.40;0.40;;;18.40;99.90;;;;;;5134145;27;20285;-78
2023/10/01 10:32:42;;;;;;;0.55;0.55;;;18.50;99.90;;;;;;5127066;27;20235;-77
2023/10/01 10:35:14;;;;;;;0.68;0.40;;;18.70;99.90;;;;;;5113494;28;20530;-77
2023/10/01 10:37:44;;;;;;;0.32;0.32;;;19.20;99.90;;;;;;5112963;28;20282;-76
2023/10/01 10:42:57;;;;;;;0.45;0.45;;;19.50;99.90;;;;;;5154020;27;20192;-76
2023/10/01 10:45:26;;;;;;;0.20;0.20;;;19.60;99.90;;;;;;5135427;27;20204;-77
2023/10/01 10:48:04;;;;;;;0.40;0.40;;;19.70;99.90;;;;;;5154056;27;20219;-76
2023/10/01 10:50:49;;;;;;;0.68;0.68;;;19.80;99.90;;;;;;5154032;27;20205;-75
2023/10/01 10:53:15;;;;;;;0.43;0.43;;;20.30;99.90;;;;;;5154188;27;20217;-75
2023/10/01 10:56:00;;;;;;;0.30;0.30;;;20.70;99.90;;;;;;5153824;27;20657;-74
2023/10/01 10:58:28;;;;;;;0.20;0.20;;;20.90;99.90;;;;;;5153797;27;20210;-75
2023/10/01 11:01:19;;;;;;;0.50;0.50;;;21.00;99.90;;;;;;5151671;27;20190;-75
2023/10/01 11:03:57;;;;;;;0.63;0.38;;;21.20;99.90;;;;;;5132516;27;20207;-75
2023/10/01 11:06:39;;;;;;;0.30;0.30;;;21.20;99.90;;;;;;5132696;27;20268;-74
2023/10/01 11:09:26;;;;;;;0.38;0.38;;;20.50;99.90;;;;;;5132267;27;20679;-76
2023/10/01 11:12:06;;;;;;;1.27;0.80;;;20.10;99.90;;;;;;5113913;27;20202;-74
2023/10/01 11:14:36;;;;;;;0.55;0.50;;;19.90;99.90;;;;;;5132580;27;20195;-73
2023/10/01 11:17:06;;;;;;;0.40;0.40;;;20.00;99.90;;;;;;5132783;27;20206;-73
2023/10/01 11:19:35;;;;;;;0.30;0.30;;;19.90;99.90;;;;;;5132510;27;20699;-75
2023/10/01 11:22:06;;;;;;;0.52;0.40;;;20.40;99.90;;;;;;5114756;27;20191;-76
2023/10/01 11:24:40;;;;;;;0.65;0.50;;;20.50;99.90;;;;;;5132710;27;20718;-76
2023/10/01 11:27:25;;;;;;;0.40;0.40;;;20.60;99.90;;;;;;5132292;27;20214;-77
2023/10/01 11:30:13;;;;;;;0.65;0.43;;;20.70;99.90;;;;;;5113725;27;20236;-77
2023/10/01 11:32:58;;;;;;;0.43;0.43;;;20.60;99.90;;;;;;5110679;28;21535;-77
2023/10/01 11:35:31;;;;;;;0.77;0.73;;;20.60;99.90;;;;;;5111364;28;20666;-74
2023/10/01 11:37:58;;;;;;;1.20;0.43;;;20.60;99.90;;;;;;5111593;28;20221;-75
2023/10/01 11:41:06;;;;;;;0.30;0.30;;;20.50;99.90;;;;;;5149748;27;20675;-76
2023/10/01 11:43:23;;;;;;;0.40;0.40;;;20.50;99.90;;;;;;5152769;27;20202;-77
2023/10/01 11:46:18;;;;;;;0.57;0.45;;;20.10;99.90;;;;;;5152908;27;20276;-77
2023/10/01 11:48:56;;;;;;;1.05;0.90;;;20.20;99.90;;;;;;5151986;27;20182;-75
2023/10/01 11:51:50;;;;;;;0.28;0.28;;;20.40;99.90;;;;;;5151851;27;20703;-74
2023/10/01 11:54:21;;;;;;;0.32;0.32;;;20.40;99.90;;;;;;5152288;27;20994;-75
2023/10/01 11:57:04;;;;;;;0.50;0.50;;;20.10;99.90;;;;;;5152757;27;20194;-76
2023/10/01 11:59:31;;;;;;;0.50;0.50;;;19.60;99.90;;;;;;5113779;27;20209;-77
2023/10/01 12:02:15;;;;;;;0.60;0.60;;;19.80;99.90;;;;;;5131606;27;20195;-76
2023/10/01 12:04:45;;;;;;;0.40;0.40;;;19.80;99.90;;;;;;5130882;27;20198;-76
2023/10/01 12:07:18;;;;;;;1.40;0.65;;;20.00;99.90;;;;;;5131538;27;20624;-77
2023/10/01 12:09:49;;;;;;;0.28;0.28;;;20.30;99.90;;;;;;5131492;27;20275;-77
2023/10/01 12:12:20;;;;;;;0.75;0.57;;;20.20;99.90;;;;;;5131759;27;20189;-77
2023/10/01 12:14:55;;;;;;;0.30;0.30;;;20.30;99.90;;;;;;5113117;27;20198;-76
2023/10/01 12:17:24;;;;;;;1.13;1.02;;;20.20;99.90;;;;;;5131421;27;20197;-77
2023/10/01 12:20:01;;;;;;;0.20;0.20;;;20.20;99.90;;;;;;5113081;27;20199;-73
2023/10/01 12:22:29;;;;;;;0.88;0.73;;;20.20;99.90;;;;;;5131201;27;20539;-75
2023/10/01 12:24:57;;;;;;;0.30;0.30;;;19.90;99.90;;;;;;5121764;27;20203;-74
2023/10/01 12:27:45;;;;;;;0.30;0.30;;;19.90;99.90;;;;;;5110686;28;20204;-73
2023/10/01 12:30:27;;;;;;;0.20;0.20;;;19.80;99.90;;;;;;5110607;28;20191;-75
2023/10/01 12:32:57;;;;;;;0.40;0.40;;;19.70;99.90;;;;;;5110751;28;20180;-74
2023/10/01 12:35:29;;;;;;;0.25;0.25;;;19.30;99.90;;;;;;5110559;28;20210;-73
2023/10/01 12:38:05;;;;;;;0.30;0.30;;;19.20;99.90;;;;;;5110643;28;20191;-74
2023/10/01 12:40:34;;;;;;;0.63;0.60;;;19.20;99.90;;;;;;5150344;27;20276;-75
2023/10/01 12:43:32;;;;;;;0.40;0.40;;;19.30;99.90;;;;;;5145227;27;20199;-72
2023/10/01 12:45:51;;;;;;;0.63;0.63;;;19.40;99.90;;;;;;5110103;28;20207;-75
2023/10/01 12:48:20;;;;;;;0.20;0.20;;;19.10;99.90;;;;;;5110403;28;20227;-74
2023/10/01 12:50:59;;;;;;;0.50;0.35;;;18.90;99.90;;;;;;5110186;28;20183;-74
2023/10/01 12:53:26;;;;;;;0.30;0.30;;;18.50;99.90;;;;;;5111888;27;20211;-74
2023/10/01 12:55:52;;;;;;;0.73;0.55;;;18.30;99.90;;;;;;5130633;27;20251;-74
2023/10/01 12:58:35;;;;;;;0.30;0.30;;;18.20;99.90;;;;;;5130526;27;20190;-73
2023/10/01 13:01:23;;;;;;;0.73;0.68;;;18.20;99.90;;;;;;5130071;27;20179;-73
2023/10/01 13:03:50;;;;;;;0.38;0.38;;;18.20;99.90;;;;;;5130427;27;21007;-72
2023/10/01 13:06:16;;;;;;;0.30;0.30;;;18.00;99.90;;;;;;5130294;27;20207;-73
2023/10/01 13:08:42;;;;;;;0.20;0.20;;;18.00;99.90;;;;;;5130294;27;20726;-73
2023/10/01 13:11:42;;;;;;;0.35;0.35;;;17.90;99.90;;;;;;5130359;27;20671;-73
2023/10/01 13:13:54;;;;;;;0.50;0.50;;;17.90;99.90;;;;;;5130027;27;20649;-73
2023/10/01 13:16:20;;;;;;;0.20;0.20;;;17.90;99.90;;;;;;5130006;27;20206;-72
2023/10/01 13:18:46;;;;;;;0.50;0.50;;;17.80;99.90;;;;;;5129928;27;20202;-74
2023/10/01 13:21:12;;;;;;;0.85;0.60;;;17.90;99.90;;;;;;5120178;27;20211;-73
2023/10/01 13:23:44;;;;;;;0.47;0.47;;;17.90;99.90;;;;;;5109412;28;20203;-73
2023/10/01 13:26:24;;;;;;;0.50;0.50;;;17.70;99.90;;;;;;5109770;28;20196;-73
2023/10/01 13:28:51;;;;;;;0.38;0.38;;;17.70;99.90;;;;;;5109442;28;20187;-71
2023/10/01 13:34:31;;;;;;;0.30;0.30;;;17.20;99.90;;;;;;5109749;28;20195;-75
2023/10/01 13:39:26;;;;;;;1.85;0.60;;;16.90;99.90;;;;;;5119284;27;20612;-75
2023/10/01 14:12:10;;;;;;;0.80;0.80;;;16.00;99.90;;;;;;5129370;28;20281;-73
2023/10/01 14:14:36;;;;;;;0.75;0.57;;;15.90;99.90;;;;;;5129165;28;20298;-73
2023/10/01 14:17:13;;;;;;;1.48;0.73;;;15.80;99.90;;;;;;5123195;28;20236;-70
2023/10/01 14:19:42;;;;;;;1.35;0.60;;;15.80;99.90;;;;;;5108778;28;20294;-70
2023/10/01 14:22:20;;;;;;;0.50;0.50;;;15.80;99.90;;;;;;5109146;28;20658;-73
2023/10/01 14:24:49;;;;;;;1.30;0.75;;;15.80;99.90;;;;;;5108950;28;20548;-73
2023/10/01 14:27:24;;;;;;;0.40;0.40;;;15.70;99.90;;;;;;5108896;28;20678;-73
2023/10/01 14:32:35;;;;;;;0.35;0.35;;;15.50;99.90;;;;;;5108836;28;20195;-73
2023/10/01 14:35:14;;;;;;;0.43;0.43;;;15.40;99.90;;;;;;5109141;28;20592;-72
2023/10/01 14:37:41;;;;;;;0.32;0.32;;;15.40;99.90;;;;;;5108763;28;20662;-73
2023/10/01 14:40:13;;;;;;;0.45;0.45;;;15.40;99.90;;;;;;5125036;28;20209;-74